<?xml version="1.0" encoding="UTF-8" standalone="no" ?>
<gpx xmlns="http://www.topografix.com/GPX/1/1" xmlns:xsi="http://www.w3.org/2001/XMLSchema-instance" xsi:schemaLocation="http://www.topografix.com/GPX/1/1 http://www.topografix.com/GPX/1/1/gpx.xsd" version="1.1" creator="VisuGPX - https://www.visugpx.com">
  <metadata>
    <name>Tour de la Pointe du Van</name>
    <desc><![CDATA[Pointe du Van au nord de la pointe du Ratz]]></desc>
  </metadata>
  <wpt lat="48.0457" lon="-4.70567">
    <ele>6.3</ele>
    <name><![CDATA[Parking de la plage de la Baie des Trépassés]]></name>
  </wpt>
  <wpt lat="48.04958" lon="-4.70517">
    <ele>17.6</ele>
    <name><![CDATA[Sentier côtier]]></name>
  </wpt>
  <wpt lat="48.05338" lon="-4.71211">
    <ele>16.7</ele>
    <name><![CDATA[Sentier à droite]]></name>
  </wpt>
  <wpt lat="48.06016" lon="-4.71181">
    <ele>46.7</ele>
    <name><![CDATA[Aller-retour Fontaine Saint-Mathieu]]></name>
  </wpt>
  <wpt lat="48.06419" lon="-4.71367">
    <ele>31.2</ele>
    <name><![CDATA[Pointe du Van]]></name>
  </wpt>
  <wpt lat="48.05891" lon="-4.69329">
    <ele>64.2</ele>
    <name><![CDATA[Fond de vallon]]></name>
  </wpt>
  <wpt lat="48.06127" lon="-4.68775">
    <ele>44.6</ele>
    <name><![CDATA[A droite en quittant le sentier côtier]]></name>
  </wpt>
  <wpt lat="48.05643" lon="-4.68706">
    <ele>76.1</ele>
    <name><![CDATA[A gauche, au poteau balise]]></name>
  </wpt>
  <wpt lat="48.04849" lon="-4.69047">
    <ele>27.1</ele>
    <name><![CDATA[Chapelle Saint-Tugdual]]></name>
  </wpt>
  <wpt lat="48.05192" lon="-4.70192">
    <ele>52.8</ele>
    <name><![CDATA[A gauche au hameau de Kerguioc’h]]></name>
  </wpt>
  <wpt lat="48.04755" lon="-4.70119">
    <ele>7.9</ele>
    <name><![CDATA[A droite à la D607]]></name>
  </wpt>
  <wpt lat="48.04572" lon="-4.70582">
    <ele>6.3</ele>
    <name><![CDATA[Parking de la plage de la Baie des Trépassés]]></name>
  </wpt>
  <trk>
    <name><![CDATA[Pointe du Van]]></name>
    <extensions>
      <line xmlns="http://www.topografix.com/GPX/gpx_style/0/2">
        <color>0000FF</color>
        <width>4</width>
      </line>
    </extensions>
    <trkseg>
      <trkpt lat="48.0457" lon="-4.70567">
        <ele>6</ele>
        <time>2021-08-21T18:25:06+02:00</time>
      </trkpt>
      <trkpt lat="48.04589" lon="-4.70581">
        <ele>6</ele>
        <time>2021-08-21T18:25:11+02:00</time>
      </trkpt>
      <trkpt lat="48.04629" lon="-4.70576">
        <ele>6</ele>
        <time>2021-08-21T18:25:16+02:00</time>
      </trkpt>
      <trkpt lat="48.04658" lon="-4.70566">
        <ele>6</ele>
        <time>2021-08-21T18:25:21+02:00</time>
      </trkpt>
      <trkpt lat="48.04695" lon="-4.70563">
        <ele>5</ele>
        <time>2021-08-21T18:25:26+02:00</time>
      </trkpt>
      <trkpt lat="48.04744" lon="-4.70538">
        <ele>4</ele>
        <time>2021-08-21T18:25:31+02:00</time>
      </trkpt>
      <trkpt lat="48.04789" lon="-4.70532">
        <ele>6</ele>
        <time>2021-08-21T18:25:36+02:00</time>
      </trkpt>
      <trkpt lat="48.04826" lon="-4.70526">
        <ele>7</ele>
        <time>2021-08-21T18:25:41+02:00</time>
      </trkpt>
      <trkpt lat="48.04915" lon="-4.70508">
        <ele>11</ele>
        <time>2021-08-21T18:25:46+02:00</time>
      </trkpt>
      <trkpt lat="48.04958" lon="-4.70517">
        <ele>18</ele>
        <time>2021-08-21T18:25:51+02:00</time>
      </trkpt>
      <trkpt lat="48.04967" lon="-4.70559">
        <ele>17</ele>
        <time>2021-08-21T18:25:56+02:00</time>
      </trkpt>
      <trkpt lat="48.05013" lon="-4.70658">
        <ele>23</ele>
        <time>2021-08-21T18:26:01+02:00</time>
      </trkpt>
      <trkpt lat="48.0506" lon="-4.70741">
        <ele>35</ele>
        <time>2021-08-21T18:26:06+02:00</time>
      </trkpt>
      <trkpt lat="48.05099" lon="-4.70781">
        <ele>41</ele>
        <time>2021-08-21T18:26:11+02:00</time>
      </trkpt>
      <trkpt lat="48.05285" lon="-4.70883">
        <ele>36</ele>
        <time>2021-08-21T18:26:16+02:00</time>
      </trkpt>
      <trkpt lat="48.05338" lon="-4.71004">
        <ele>26</ele>
        <time>2021-08-21T18:26:21+02:00</time>
      </trkpt>
      <trkpt lat="48.05344" lon="-4.71122">
        <ele>20</ele>
        <time>2021-08-21T18:26:26+02:00</time>
      </trkpt>
      <trkpt lat="48.05343" lon="-4.71147">
        <ele>19</ele>
        <time>2021-08-21T18:26:31+02:00</time>
      </trkpt>
      <trkpt lat="48.05338" lon="-4.71211">
        <ele>17</ele>
        <time>2021-08-21T18:26:36+02:00</time>
      </trkpt>
      <trkpt lat="48.05369" lon="-4.71298">
        <ele>15</ele>
        <time>2021-08-21T18:26:41+02:00</time>
      </trkpt>
      <trkpt lat="48.05375" lon="-4.71304">
        <ele>14</ele>
        <time>2021-08-21T18:26:46+02:00</time>
      </trkpt>
      <trkpt lat="48.05396" lon="-4.7126">
        <ele>20</ele>
        <time>2021-08-21T18:26:51+02:00</time>
      </trkpt>
      <trkpt lat="48.0545" lon="-4.71153">
        <ele>29</ele>
        <time>2021-08-21T18:26:56+02:00</time>
      </trkpt>
      <trkpt lat="48.05512" lon="-4.71032">
        <ele>34</ele>
        <time>2021-08-21T18:27:01+02:00</time>
      </trkpt>
      <trkpt lat="48.05548" lon="-4.71026">
        <ele>35</ele>
        <time>2021-08-21T18:27:06+02:00</time>
      </trkpt>
      <trkpt lat="48.05557" lon="-4.71061">
        <ele>30</ele>
        <time>2021-08-21T18:27:11+02:00</time>
      </trkpt>
      <trkpt lat="48.05625" lon="-4.71124">
        <ele>27</ele>
        <time>2021-08-21T18:27:16+02:00</time>
      </trkpt>
      <trkpt lat="48.0567" lon="-4.71224">
        <ele>21</ele>
        <time>2021-08-21T18:27:21+02:00</time>
      </trkpt>
      <trkpt lat="48.05748" lon="-4.71254">
        <ele>35</ele>
        <time>2021-08-21T18:27:26+02:00</time>
      </trkpt>
      <trkpt lat="48.05766" lon="-4.71321">
        <ele>20</ele>
        <time>2021-08-21T18:27:31+02:00</time>
      </trkpt>
      <trkpt lat="48.05779" lon="-4.7135">
        <ele>15</ele>
        <time>2021-08-21T18:27:36+02:00</time>
      </trkpt>
      <trkpt lat="48.05788" lon="-4.71338">
        <ele>18</ele>
        <time>2021-08-21T18:27:41+02:00</time>
      </trkpt>
      <trkpt lat="48.05817" lon="-4.71304">
        <ele>29</ele>
        <time>2021-08-21T18:27:46+02:00</time>
      </trkpt>
      <trkpt lat="48.05828" lon="-4.713">
        <ele>31</ele>
        <time>2021-08-21T18:27:51+02:00</time>
      </trkpt>
      <trkpt lat="48.05843" lon="-4.71292">
        <ele>33</ele>
        <time>2021-08-21T18:27:56+02:00</time>
      </trkpt>
      <trkpt lat="48.05883" lon="-4.71282">
        <ele>31</ele>
        <time>2021-08-21T18:28:01+02:00</time>
      </trkpt>
      <trkpt lat="48.05903" lon="-4.71222">
        <ele>42</ele>
        <time>2021-08-21T18:28:06+02:00</time>
      </trkpt>
      <trkpt lat="48.05913" lon="-4.71187">
        <ele>47</ele>
        <time>2021-08-21T18:28:11+02:00</time>
      </trkpt>
      <trkpt lat="48.05927" lon="-4.71164">
        <ele>50</ele>
        <time>2021-08-21T18:28:16+02:00</time>
      </trkpt>
      <trkpt lat="48.05953" lon="-4.71184">
        <ele>46</ele>
        <time>2021-08-21T18:28:21+02:00</time>
      </trkpt>
      <trkpt lat="48.05974" lon="-4.71206">
        <ele>41</ele>
        <time>2021-08-21T18:28:26+02:00</time>
      </trkpt>
      <trkpt lat="48.05989" lon="-4.71207">
        <ele>40</ele>
        <time>2021-08-21T18:28:31+02:00</time>
      </trkpt>
      <trkpt lat="48.05994" lon="-4.71209">
        <ele>39</ele>
        <time>2021-08-21T18:28:36+02:00</time>
      </trkpt>
      <trkpt lat="48.05994" lon="-4.71228">
        <ele>35</ele>
        <time>2021-08-21T18:28:41+02:00</time>
      </trkpt>
      <trkpt lat="48.0601" lon="-4.71236">
        <ele>34</ele>
        <time>2021-08-21T18:28:46+02:00</time>
      </trkpt>
      <trkpt lat="48.06016" lon="-4.71199">
        <ele>43</ele>
        <time>2021-08-21T18:28:51+02:00</time>
      </trkpt>
      <trkpt lat="48.06001" lon="-4.71192">
        <ele>43</ele>
        <time>2021-08-21T18:28:56+02:00</time>
      </trkpt>
      <trkpt lat="48.06003" lon="-4.71181">
        <ele>46</ele>
        <time>2021-08-21T18:29:01+02:00</time>
      </trkpt>
      <trkpt lat="48.06016" lon="-4.71181">
        <ele>47</ele>
        <time>2021-08-21T18:29:06+02:00</time>
      </trkpt>
      <trkpt lat="48.06043" lon="-4.71156">
        <ele>52</ele>
        <time>2021-08-21T18:29:11+02:00</time>
      </trkpt>
      <trkpt lat="48.06015" lon="-4.71181">
        <ele>47</ele>
        <time>2021-08-21T18:29:16+02:00</time>
      </trkpt>
      <trkpt lat="48.06036" lon="-4.71209">
        <ele>43</ele>
        <time>2021-08-21T18:29:21+02:00</time>
      </trkpt>
      <trkpt lat="48.06059" lon="-4.71266">
        <ele>37</ele>
        <time>2021-08-21T18:29:26+02:00</time>
      </trkpt>
      <trkpt lat="48.06088" lon="-4.71318">
        <ele>35</ele>
        <time>2021-08-21T18:29:31+02:00</time>
      </trkpt>
      <trkpt lat="48.0619" lon="-4.71457">
        <ele>36</ele>
        <time>2021-08-21T18:29:36+02:00</time>
      </trkpt>
      <trkpt lat="48.06267" lon="-4.71528">
        <ele>32</ele>
        <time>2021-08-21T18:29:41+02:00</time>
      </trkpt>
      <trkpt lat="48.06373" lon="-4.71421">
        <ele>38</ele>
        <time>2021-08-21T18:29:46+02:00</time>
      </trkpt>
      <trkpt lat="48.06419" lon="-4.71367">
        <ele>31</ele>
        <time>2021-08-21T18:29:51+02:00</time>
      </trkpt>
      <trkpt lat="48.06372" lon="-4.71232">
        <ele>49</ele>
        <time>2021-08-21T18:29:56+02:00</time>
      </trkpt>
      <trkpt lat="48.06399" lon="-4.71159">
        <ele>43</ele>
        <time>2021-08-21T18:30:01+02:00</time>
      </trkpt>
      <trkpt lat="48.06302" lon="-4.71052">
        <ele>49</ele>
        <time>2021-08-21T18:30:06+02:00</time>
      </trkpt>
      <trkpt lat="48.06249" lon="-4.70951">
        <ele>55</ele>
        <time>2021-08-21T18:30:11+02:00</time>
      </trkpt>
      <trkpt lat="48.06251" lon="-4.70687">
        <ele>55</ele>
        <time>2021-08-21T18:30:16+02:00</time>
      </trkpt>
      <trkpt lat="48.06231" lon="-4.70593">
        <ele>51</ele>
        <time>2021-08-21T18:30:21+02:00</time>
      </trkpt>
      <trkpt lat="48.06191" lon="-4.70464">
        <ele>52</ele>
        <time>2021-08-21T18:30:26+02:00</time>
      </trkpt>
      <trkpt lat="48.06134" lon="-4.70314">
        <ele>58</ele>
        <time>2021-08-21T18:30:31+02:00</time>
      </trkpt>
      <trkpt lat="48.06122" lon="-4.70196">
        <ele>56</ele>
        <time>2021-08-21T18:30:36+02:00</time>
      </trkpt>
      <trkpt lat="48.06171" lon="-4.70029">
        <ele>46</ele>
        <time>2021-08-21T18:30:41+02:00</time>
      </trkpt>
      <trkpt lat="48.06171" lon="-4.69962">
        <ele>44</ele>
        <time>2021-08-21T18:30:46+02:00</time>
      </trkpt>
      <trkpt lat="48.06172" lon="-4.69886">
        <ele>35</ele>
        <time>2021-08-21T18:30:51+02:00</time>
      </trkpt>
      <trkpt lat="48.06135" lon="-4.69875">
        <ele>43</ele>
        <time>2021-08-21T18:30:56+02:00</time>
      </trkpt>
      <trkpt lat="48.06119" lon="-4.69846">
        <ele>42</ele>
        <time>2021-08-21T18:31:01+02:00</time>
      </trkpt>
      <trkpt lat="48.06083" lon="-4.69787">
        <ele>46</ele>
        <time>2021-08-21T18:31:06+02:00</time>
      </trkpt>
      <trkpt lat="48.06091" lon="-4.69732">
        <ele>35</ele>
        <time>2021-08-21T18:31:11+02:00</time>
      </trkpt>
      <trkpt lat="48.06077" lon="-4.6965">
        <ele>25</ele>
        <time>2021-08-21T18:31:16+02:00</time>
      </trkpt>
      <trkpt lat="48.06037" lon="-4.69711">
        <ele>50</ele>
        <time>2021-08-21T18:31:21+02:00</time>
      </trkpt>
      <trkpt lat="48.06016" lon="-4.69616">
        <ele>51</ele>
        <time>2021-08-21T18:31:26+02:00</time>
      </trkpt>
      <trkpt lat="48.05993" lon="-4.69511">
        <ele>51</ele>
        <time>2021-08-21T18:31:31+02:00</time>
      </trkpt>
      <trkpt lat="48.05985" lon="-4.69436">
        <ele>41</ele>
        <time>2021-08-21T18:31:36+02:00</time>
      </trkpt>
      <trkpt lat="48.05944" lon="-4.69369">
        <ele>52</ele>
        <time>2021-08-21T18:31:41+02:00</time>
      </trkpt>
      <trkpt lat="48.05891" lon="-4.69329">
        <ele>64</ele>
        <time>2021-08-21T18:31:46+02:00</time>
      </trkpt>
      <trkpt lat="48.05926" lon="-4.69254">
        <ele>62</ele>
        <time>2021-08-21T18:31:51+02:00</time>
      </trkpt>
      <trkpt lat="48.06001" lon="-4.6926">
        <ele>46</ele>
        <time>2021-08-21T18:31:56+02:00</time>
      </trkpt>
      <trkpt lat="48.0605" lon="-4.69221">
        <ele>38</ele>
        <time>2021-08-21T18:32:01+02:00</time>
      </trkpt>
      <trkpt lat="48.06122" lon="-4.69215">
        <ele>17</ele>
        <time>2021-08-21T18:32:06+02:00</time>
      </trkpt>
      <trkpt lat="48.06088" lon="-4.69153">
        <ele>38</ele>
        <time>2021-08-21T18:32:11+02:00</time>
      </trkpt>
      <trkpt lat="48.06099" lon="-4.69082">
        <ele>39</ele>
        <time>2021-08-21T18:32:16+02:00</time>
      </trkpt>
      <trkpt lat="48.06084" lon="-4.68979">
        <ele>53</ele>
        <time>2021-08-21T18:32:21+02:00</time>
      </trkpt>
      <trkpt lat="48.06135" lon="-4.68897">
        <ele>48</ele>
        <time>2021-08-21T18:32:26+02:00</time>
      </trkpt>
      <trkpt lat="48.06161" lon="-4.68844">
        <ele>45</ele>
        <time>2021-08-21T18:32:31+02:00</time>
      </trkpt>
      <trkpt lat="48.06334" lon="-4.68924">
        <ele>30</ele>
        <time>2021-08-21T18:32:36+02:00</time>
      </trkpt>
      <trkpt lat="48.0639" lon="-4.68927">
        <ele>28</ele>
        <time>2021-08-21T18:32:41+02:00</time>
      </trkpt>
      <trkpt lat="48.06469" lon="-4.6894">
        <ele>15</ele>
        <time>2021-08-21T18:32:46+02:00</time>
      </trkpt>
      <trkpt lat="48.06335" lon="-4.68922">
        <ele>31</ele>
        <time>2021-08-21T18:32:51+02:00</time>
      </trkpt>
      <trkpt lat="48.06163" lon="-4.68846">
        <ele>45</ele>
        <time>2021-08-21T18:32:56+02:00</time>
      </trkpt>
      <trkpt lat="48.06141" lon="-4.68841">
        <ele>50</ele>
        <time>2021-08-21T18:33:01+02:00</time>
      </trkpt>
      <trkpt lat="48.06127" lon="-4.68775">
        <ele>44</ele>
        <time>2021-08-21T18:33:06+02:00</time>
      </trkpt>
      <trkpt lat="48.06088" lon="-4.68753">
        <ele>58</ele>
        <time>2021-08-21T18:33:11+02:00</time>
      </trkpt>
      <trkpt lat="48.06025" lon="-4.68725">
        <ele>64</ele>
        <time>2021-08-21T18:33:16+02:00</time>
      </trkpt>
      <trkpt lat="48.05964" lon="-4.68711">
        <ele>68</ele>
        <time>2021-08-21T18:33:21+02:00</time>
      </trkpt>
      <trkpt lat="48.05921" lon="-4.68683">
        <ele>70</ele>
        <time>2021-08-21T18:33:26+02:00</time>
      </trkpt>
      <trkpt lat="48.05841" lon="-4.68661">
        <ele>74</ele>
        <time>2021-08-21T18:33:31+02:00</time>
      </trkpt>
      <trkpt lat="48.05725" lon="-4.6862">
        <ele>77</ele>
        <time>2021-08-21T18:33:36+02:00</time>
      </trkpt>
      <trkpt lat="48.05628" lon="-4.68624">
        <ele>76</ele>
        <time>2021-08-21T18:33:41+02:00</time>
      </trkpt>
      <trkpt lat="48.05643" lon="-4.68706">
        <ele>76</ele>
        <time>2021-08-21T18:33:46+02:00</time>
      </trkpt>
      <trkpt lat="48.05539" lon="-4.68723">
        <ele>73</ele>
        <time>2021-08-21T18:33:51+02:00</time>
      </trkpt>
      <trkpt lat="48.05374" lon="-4.68801">
        <ele>67</ele>
        <time>2021-08-21T18:33:56+02:00</time>
      </trkpt>
      <trkpt lat="48.05325" lon="-4.68807">
        <ele>64</ele>
        <time>2021-08-21T18:34:01+02:00</time>
      </trkpt>
      <trkpt lat="48.05275" lon="-4.68792">
        <ele>61</ele>
        <time>2021-08-21T18:34:06+02:00</time>
      </trkpt>
      <trkpt lat="48.05237" lon="-4.68811">
        <ele>58</ele>
        <time>2021-08-21T18:34:11+02:00</time>
      </trkpt>
      <trkpt lat="48.05194" lon="-4.68842">
        <ele>55</ele>
        <time>2021-08-21T18:34:16+02:00</time>
      </trkpt>
      <trkpt lat="48.05152" lon="-4.68862">
        <ele>52</ele>
        <time>2021-08-21T18:34:21+02:00</time>
      </trkpt>
      <trkpt lat="48.05176" lon="-4.69004">
        <ele>52</ele>
        <time>2021-08-21T18:34:26+02:00</time>
      </trkpt>
      <trkpt lat="48.05198" lon="-4.69064">
        <ele>56</ele>
        <time>2021-08-21T18:34:31+02:00</time>
      </trkpt>
      <trkpt lat="48.05195" lon="-4.69113">
        <ele>57</ele>
        <time>2021-08-21T18:34:36+02:00</time>
      </trkpt>
      <trkpt lat="48.05151" lon="-4.6912">
        <ele>54</ele>
        <time>2021-08-21T18:34:41+02:00</time>
      </trkpt>
      <trkpt lat="48.05025" lon="-4.69112">
        <ele>44</ele>
        <time>2021-08-21T18:34:46+02:00</time>
      </trkpt>
      <trkpt lat="48.04983" lon="-4.69105">
        <ele>41</ele>
        <time>2021-08-21T18:34:51+02:00</time>
      </trkpt>
      <trkpt lat="48.0494" lon="-4.69035">
        <ele>35</ele>
        <time>2021-08-21T18:34:56+02:00</time>
      </trkpt>
      <trkpt lat="48.04858" lon="-4.69004">
        <ele>26</ele>
        <time>2021-08-21T18:35:01+02:00</time>
      </trkpt>
      <trkpt lat="48.04843" lon="-4.6899">
        <ele>24</ele>
        <time>2021-08-21T18:35:06+02:00</time>
      </trkpt>
      <trkpt lat="48.04854" lon="-4.68959">
        <ele>25</ele>
        <time>2021-08-21T18:35:11+02:00</time>
      </trkpt>
      <trkpt lat="48.04833" lon="-4.69033">
        <ele>25</ele>
        <time>2021-08-21T18:35:16+02:00</time>
      </trkpt>
      <trkpt lat="48.04849" lon="-4.69047">
        <ele>27</ele>
        <time>2021-08-21T18:35:21+02:00</time>
      </trkpt>
      <trkpt lat="48.04861" lon="-4.6917">
        <ele>33</ele>
        <time>2021-08-21T18:35:26+02:00</time>
      </trkpt>
      <trkpt lat="48.04886" lon="-4.69167">
        <ele>36</ele>
        <time>2021-08-21T18:35:31+02:00</time>
      </trkpt>
      <trkpt lat="48.04883" lon="-4.69319">
        <ele>35</ele>
        <time>2021-08-21T18:35:36+02:00</time>
      </trkpt>
      <trkpt lat="48.05012" lon="-4.69371">
        <ele>42</ele>
        <time>2021-08-21T18:35:41+02:00</time>
      </trkpt>
      <trkpt lat="48.05016" lon="-4.69407">
        <ele>40</ele>
        <time>2021-08-21T18:35:46+02:00</time>
      </trkpt>
      <trkpt lat="48.05086" lon="-4.69465">
        <ele>43</ele>
        <time>2021-08-21T18:35:51+02:00</time>
      </trkpt>
      <trkpt lat="48.05127" lon="-4.69509">
        <ele>43</ele>
        <time>2021-08-21T18:35:56+02:00</time>
      </trkpt>
      <trkpt lat="48.05206" lon="-4.69563">
        <ele>47</ele>
        <time>2021-08-21T18:36:01+02:00</time>
      </trkpt>
      <trkpt lat="48.05253" lon="-4.6961">
        <ele>50</ele>
        <time>2021-08-21T18:36:06+02:00</time>
      </trkpt>
      <trkpt lat="48.05282" lon="-4.69611">
        <ele>52</ele>
        <time>2021-08-21T18:36:11+02:00</time>
      </trkpt>
      <trkpt lat="48.05283" lon="-4.69644">
        <ele>53</ele>
        <time>2021-08-21T18:36:16+02:00</time>
      </trkpt>
      <trkpt lat="48.05272" lon="-4.69669">
        <ele>53</ele>
        <time>2021-08-21T18:36:21+02:00</time>
      </trkpt>
      <trkpt lat="48.05266" lon="-4.69745">
        <ele>59</ele>
        <time>2021-08-21T18:36:26+02:00</time>
      </trkpt>
      <trkpt lat="48.0525" lon="-4.69763">
        <ele>59</ele>
        <time>2021-08-21T18:36:31+02:00</time>
      </trkpt>
      <trkpt lat="48.0526" lon="-4.69794">
        <ele>60</ele>
        <time>2021-08-21T18:36:36+02:00</time>
      </trkpt>
      <trkpt lat="48.05236" lon="-4.69876">
        <ele>59</ele>
        <time>2021-08-21T18:36:41+02:00</time>
      </trkpt>
      <trkpt lat="48.05237" lon="-4.69978">
        <ele>59</ele>
        <time>2021-08-21T18:36:46+02:00</time>
      </trkpt>
      <trkpt lat="48.05224" lon="-4.70049">
        <ele>55</ele>
        <time>2021-08-21T18:36:51+02:00</time>
      </trkpt>
      <trkpt lat="48.05201" lon="-4.70144">
        <ele>52</ele>
        <time>2021-08-21T18:36:56+02:00</time>
      </trkpt>
      <trkpt lat="48.05192" lon="-4.70192">
        <ele>53</ele>
        <time>2021-08-21T18:37:01+02:00</time>
      </trkpt>
      <trkpt lat="48.05143" lon="-4.70204">
        <ele>50</ele>
        <time>2021-08-21T18:37:06+02:00</time>
      </trkpt>
      <trkpt lat="48.05112" lon="-4.70193">
        <ele>48</ele>
        <time>2021-08-21T18:37:11+02:00</time>
      </trkpt>
      <trkpt lat="48.05077" lon="-4.70171">
        <ele>44</ele>
        <time>2021-08-21T18:37:16+02:00</time>
      </trkpt>
      <trkpt lat="48.05022" lon="-4.70189">
        <ele>39</ele>
        <time>2021-08-21T18:37:21+02:00</time>
      </trkpt>
      <trkpt lat="48.04897" lon="-4.70202">
        <ele>27</ele>
        <time>2021-08-21T18:37:26+02:00</time>
      </trkpt>
      <trkpt lat="48.04829" lon="-4.70237">
        <ele>21</ele>
        <time>2021-08-21T18:37:31+02:00</time>
      </trkpt>
      <trkpt lat="48.04804" lon="-4.70232">
        <ele>17</ele>
        <time>2021-08-21T18:37:36+02:00</time>
      </trkpt>
      <trkpt lat="48.0481" lon="-4.70177">
        <ele>15</ele>
        <time>2021-08-21T18:37:41+02:00</time>
      </trkpt>
      <trkpt lat="48.04826" lon="-4.70141">
        <ele>14</ele>
        <time>2021-08-21T18:37:46+02:00</time>
      </trkpt>
      <trkpt lat="48.04813" lon="-4.70106">
        <ele>11</ele>
        <time>2021-08-21T18:37:51+02:00</time>
      </trkpt>
      <trkpt lat="48.04755" lon="-4.70119">
        <ele>8</ele>
        <time>2021-08-21T18:37:56+02:00</time>
      </trkpt>
      <trkpt lat="48.04748" lon="-4.70195">
        <ele>8</ele>
        <time>2021-08-21T18:38:01+02:00</time>
      </trkpt>
      <trkpt lat="48.04752" lon="-4.70281">
        <ele>10</ele>
        <time>2021-08-21T18:38:06+02:00</time>
      </trkpt>
      <trkpt lat="48.04747" lon="-4.70388">
        <ele>8</ele>
        <time>2021-08-21T18:38:11+02:00</time>
      </trkpt>
      <trkpt lat="48.04727" lon="-4.70459">
        <ele>7</ele>
        <time>2021-08-21T18:38:16+02:00</time>
      </trkpt>
      <trkpt lat="48.0463" lon="-4.70485">
        <ele>6</ele>
        <time>2021-08-21T18:38:21+02:00</time>
      </trkpt>
      <trkpt lat="48.04568" lon="-4.70479">
        <ele>6</ele>
        <time>2021-08-21T18:38:26+02:00</time>
      </trkpt>
      <trkpt lat="48.04572" lon="-4.70582">
        <ele>6</ele>
        <time>2021-08-21T18:38:31+02:00</time>
      </trkpt>
    </trkseg>
  </trk>
</gpx>